Newport, Indiana
Current Conditions -  °F | °C
As of 1:15 PM on Thursday 27 Nov 2014 (Local Time) from KPRG Reporting Station
Overcast Overcast  
Wind Chill: 19°   Ceiling: 1900
Heat Index: 29°   Visibility: 7mi
Dew Point: 24°   Wind: 12mph
Humidity: 83%   Direction: 300°WNW
Pressure: 30.39"   Gusts: NA
Location:  39.88°N, 87.41°W
Report Text: KPRG 271815Z AUTO 30010KT 7SM OVC019 M02/M04 A3039 RMK AO2 T10191045
Loading
Personal Weather Stations






























Interactive Weather Map New forecast layout! Learn more

10-Day Weather Forecast

Advertisements
Track Severe Weather on mobile